Time;durP1;ratioP1;P1;durP2;ratioP2;P2;SDS_P1;SDS_P2;PMS_P1;PMS_P2;Temp;Humidity;BMP_temperature;BMP_pressure;BME280_temperature;BME280_humidity;BME280_pressure;Samples;Min_cycle;Max_cycle;Signal;HPM_P1;HPM_P2
2021/03/20 00:01:27;;;;;;;8.38;5.25;;;;;;;;;;4994285;28;20022;-66
2021/03/20 00:03:52;;;;;;;8.48;5.30;;;;;;;;;;4994435;28;20037;-65
2021/03/20 00:06:20;;;;;;;11.98;6.82;;;;;;;;;;4994444;28;20117;-64
2021/03/20 00:08:47;;;;;;;9.93;6.57;;;;;;;;;;4993064;28;20030;-65
2021/03/20 00:11:13;;;;;;;11.60;6.88;;;;;;;;;;4993688;28;20427;-65
2021/03/20 00:13:38;;;;;;;12.82;8.15;;;;;;;;;;4993652;28;20057;-65
2021/03/20 00:16:04;;;;;;;12.80;7.35;;;;;;;;;;4993898;28;20477;-65
2021/03/20 00:18:29;;;;;;;10.40;6.55;;;;;;;;;;4994214;28;20045;-65
2021/03/20 00:20:55;;;;;;;17.48;7.65;;;;;;;;;;4994040;28;20081;-65
2021/03/20 00:23:20;;;;;;;12.10;7.40;;;;;;;;;;4994005;28;20102;-65
2021/03/20 00:25:46;;;;;;;10.77;5.93;;;;;;;;;;4994007;28;20041;-65
2021/03/20 00:28:20;;;;;;;11.35;6.80;;;;;;;;;;4993512;28;20041;-65
2021/03/20 00:30:46;;;;;;;15.02;7.75;;;;;;;;;;4993991;28;20359;-65
2021/03/20 00:33:11;;;;;;;13.10;7.70;;;;;;;;;;4993468;28;20034;-65
2021/03/20 00:35:36;;;;;;;17.17;7.72;;;;;;;;;;4993842;28;20034;-65
2021/03/20 00:38:02;;;;;;;11.18;5.82;;;;;;;;;;4993404;28;20018;-65
2021/03/20 00:40:28;;;;;;;10.48;7.28;;;;;;;;;;4993897;28;20061;-65
2021/03/20 00:42:54;;;;;;;11.57;7.45;;;;;;;;;;4993712;28;20478;-65
2021/03/20 00:45:22;;;;;;;12.20;6.75;;;;;;;;;;4992571;28;20047;-65
2021/03/20 00:47:47;;;;;;;9.98;5.78;;;;;;;;;;4993173;28;20388;-65
2021/03/20 00:50:13;;;;;;;13.32;6.95;;;;;;;;;;4993679;28;20014;-65
2021/03/20 00:52:40;;;;;;;12.80;6.28;;;;;;;;;;4993634;28;20022;-65
2021/03/20 00:55:05;;;;;;;11.38;6.63;;;;;;;;;;4993537;28;20439;-65
2021/03/20 00:57:31;;;;;;;11.00;6.05;;;;;;;;;;4993793;28;20025;-65
2021/03/20 00:59:56;;;;;;;11.55;6.70;;;;;;;;;;4993950;28;20463;-65
2021/03/20 01:02:21;;;;;;;10.07;5.65;;;;;;;;;;4993461;28;20031;-65
2021/03/20 01:04:47;;;;;;;10.45;5.43;;;;;;;;;;4993510;28;20125;-65
2021/03/20 01:07:12;;;;;;;7.38;4.93;;;;;;;;;;4993336;28;20069;-65
2021/03/20 01:09:38;;;;;;;8.50;4.78;;;;;;;;;;4993506;28;20062;-65
2021/03/20 01:12:03;;;;;;;8.95;5.28;;;;;;;;;;4993157;28;20027;-66
2021/03/20 01:14:29;;;;;;;8.30;5.38;;;;;;;;;;4993745;28;20419;-65
2021/03/20 01:16:54;;;;;;;7.68;5.70;;;;;;;;;;4993255;28;20430;-65
2021/03/20 01:19:19;;;;;;;8.70;4.95;;;;;;;;;;4993673;28;20064;-65
2021/03/20 01:21:44;;;;;;;10.70;5.45;;;;;;;;;;4989767;28;20530;-65
2021/03/20 01:24:10;;;;;;;10.13;5.20;;;;;;;;;;4974447;28;20539;-65
2021/03/20 01:26:35;;;;;;;9.75;5.40;;;;;;;;;;4977746;28;20123;-65
2021/03/20 01:29:01;;;;;;;8.65;5.28;;;;;;;;;;4977526;28;20019;-65
2021/03/20 01:31:26;;;;;;;8.60;5.15;;;;;;;;;;4977597;28;20365;-65
2021/03/20 01:33:51;;;;;;;9.75;6.22;;;;;;;;;;4977567;28;20507;-65
2021/03/20 01:36:16;;;;;;;8.57;5.28;;;;;;;;;;4977521;28;20031;-65
2021/03/20 01:38:42;;;;;;;9.60;5.20;;;;;;;;;;4977636;28;20038;-65
2021/03/20 01:41:12;;;;;;;10.88;5.18;;;;;;;;;;4977362;28;20054;-65
2021/03/20 01:43:37;;;;;;;12.07;5.30;;;;;;;;;;4977529;28;20042;-65
2021/03/20 01:46:21;;;;;;;7.88;5.00;;;;;;;;;;4977309;28;20038;-65
2021/03/20 01:48:46;;;;;;;10.27;6.65;;;;;;;;;;4977356;28;20034;-65
2021/03/20 01:51:12;;;;;;;16.08;6.15;;;;;;;;;;4977279;28;20602;-64
2021/03/20 01:53:37;;;;;;;10.20;6.53;;;;;;;;;;4976098;28;20460;-65
2021/03/20 01:56:05;;;;;;;9.77;6.30;;;;;;;;;;4977163;28;20037;-66
2021/03/20 01:58:31;;;;;;;13.48;7.53;;;;;;;;;;4977004;28;20515;-65
2021/03/20 02:01:00;;;;;;;15.55;8.75;;;;;;;;;;4977237;28;20023;-65
2021/03/20 02:03:27;;;;;;;15.48;7.70;;;;;;;;;;4976985;28;20024;-65
2021/03/20 02:05:54;;;;;;;11.48;7.22;;;;;;;;;;4994391;28;20033;-65
2021/03/20 02:08:19;;;;;;;13.00;6.68;;;;;;;;;;4995339;28;20460;-65
2021/03/20 02:10:46;;;;;;;13.02;8.02;;;;;;;;;;4996518;28;20045;-65
2021/03/20 02:13:28;;;;;;;13.75;8.68;;;;;;;;;;4996195;28;20460;-65
2021/03/20 02:15:59;;;;;;;14.82;8.88;;;;;;;;;;4996099;28;20490;-65
2021/03/20 02:18:27;;;;;;;12.43;8.25;;;;;;;;;;4995840;28;20844;-65
2021/03/20 02:20:55;;;;;;;17.73;8.93;;;;;;;;;;4996343;28;20022;-65
2021/03/20 02:23:32;;;;;;;12.80;8.35;;;;;;;;;;4996196;28;20101;-65
2021/03/20 02:26:13;;;;;;;12.52;7.38;;;;;;;;;;4996191;28;20489;-65
2021/03/20 02:28:50;;;;;;;14.70;6.90;;;;;;;;;;4996464;28;20494;-66
2021/03/20 02:31:15;;;;;;;10.18;6.65;;;;;;;;;;4996029;28;20046;-65
2021/03/20 02:33:40;;;;;;;13.38;7.13;;;;;;;;;;4996112;28;20018;-65
2021/03/20 02:36:09;;;;;;;11.02;7.13;;;;;;;;;;4995157;28;20053;-66
2021/03/20 02:38:40;;;;;;;12.48;7.35;;;;;;;;;;4996030;28;20031;-65
2021/03/20 02:41:05;;;;;;;11.05;7.05;;;;;;;;;;4995080;28;20753;-65
2021/03/20 02:43:30;;;;;;;13.50;8.65;;;;;;;;;;4995518;28;20041;-65
2021/03/20 02:46:08;;;;;;;14.80;8.50;;;;;;;;;;4995836;28;20046;-65
2021/03/20 02:48:40;;;;;;;14.38;8.40;;;;;;;;;;4995569;28;20407;-65
2021/03/20 02:51:07;;;;;;;14.30;8.93;;;;;;;;;;4995780;28;20035;-65
2021/03/20 02:53:59;;;;;;;13.30;8.25;;;;;;;;;;4995729;28;20068;-65
2021/03/20 02:56:28;;;;;;;12.95;8.90;;;;;;;;;;4994172;28;20042;-65
2021/03/20 02:58:59;;;;;;;13.45;7.93;;;;;;;;;;4995392;28;20081;-65
2021/03/20 03:01:26;;;;;;;19.10;8.15;;;;;;;;;;4995071;28;20084;-65
2021/03/20 03:03:52;;;;;;;14.70;7.90;;;;;;;;;;4995385;28;20105;-65
2021/03/20 03:06:36;;;;;;;12.80;7.82;;;;;;;;;;4995402;28;20488;-65
2021/03/20 03:09:19;;;;;;;17.23;7.05;;;;;;;;;;4995372;28;20038;-65
2021/03/20 03:11:51;;;;;;;15.18;7.85;;;;;;;;;;4995205;28;20030;-64
2021/03/20 03:14:19;;;;;;;13.73;6.60;;;;;;;;;;4995291;28;20041;-65
2021/03/20 03:16:49;;;;;;;10.95;6.90;;;;;;;;;;4995156;28;20058;-65
2021/03/20 03:19:18;;;;;;;10.95;7.38;;;;;;;;;;4995197;28;20423;-65
2021/03/20 03:21:46;;;;;;;12.32;7.22;;;;;;;;;;4994826;28;20537;-65
2021/03/20 03:24:14;;;;;;;13.65;7.35;;;;;;;;;;4995110;28;20379;-65
2021/03/20 03:26:40;;;;;;;13.10;7.25;;;;;;;;;;4995023;28;20048;-65
2021/03/20 03:29:09;;;;;;;10.63;5.80;;;;;;;;;;4994974;28;20034;-65
2021/03/20 03:31:42;;;;;;;11.00;6.53;;;;;;;;;;4994962;28;20027;-65
2021/03/20 03:34:12;;;;;;;14.18;8.82;;;;;;;;;;4994885;28;20036;-65
2021/03/20 03:36:49;;;;;;;13.20;7.65;;;;;;;;;;4994794;28;20089;-65
2021/03/20 03:39:22;;;;;;;11.40;7.07;;;;;;;;;;4994825;28;20034;-65
2021/03/20 03:41:47;;;;;;;11.48;6.93;;;;;;;;;;4994620;28;20021;-65
2021/03/20 03:44:12;;;;;;;13.18;7.45;;;;;;;;;;4994487;28;20050;-65
2021/03/20 03:46:41;;;;;;;13.60;7.22;;;;;;;;;;4994570;28;20367;-65
2021/03/20 03:49:07;;;;;;;12.95;7.10;;;;;;;;;;4993783;28;20022;-65
2021/03/20 03:51:32;;;;;;;10.70;7.38;;;;;;;;;;4994161;28;20538;-65
2021/03/20 03:53:58;;;;;;;15.40;7.85;;;;;;;;;;4994581;28;20035;-65
2021/03/20 03:56:23;;;;;;;15.93;7.38;;;;;;;;;;4994271;28;20031;-65
2021/03/20 03:58:49;;;;;;;12.80;7.43;;;;;;;;;;4994435;28;20042;-65
2021/03/20 04:01:28;;;;;;;10.95;6.55;;;;;;;;;;4994124;28;20033;-65
2021/03/20 04:03:56;;;;;;;13.27;7.45;;;;;;;;;;4994340;28;20076;-66
2021/03/20 04:06:47;;;;;;;12.00;6.95;;;;;;;;;;4994150;28;20080;-65
2021/03/20 04:09:21;;;;;;;13.90;6.78;;;;;;;;;;4994170;28;20018;-65
2021/03/20 04:11:47;;;;;;;15.00;7.53;;;;;;;;;;4993982;28;20118;-65
2021/03/20 04:14:18;;;;;;;11.18;6.85;;;;;;;;;;4994126;28;20053;-65
2021/03/20 04:16:55;;;;;;;15.18;7.30;;;;;;;;;;4993943;28;20038;-66
2021/03/20 04:19:20;;;;;;;15.15;7.07;;;;;;;;;;4994097;28;20114;-65
2021/03/20 04:21:57;;;;;;;11.90;7.05;;;;;;;;;;4994092;28;20544;-65
2021/03/20 04:24:29;;;;;;;12.10;7.95;;;;;;;;;;4993774;28;20038;-65
2021/03/20 04:27:02;;;;;;;13.15;7.82;;;;;;;;;;4993914;28;20093;-65
2021/03/20 04:29:47;;;;;;;12.45;7.50;;;;;;;;;;4992709;28;20031;-65
2021/03/20 04:32:22;;;;;;;14.23;7.80;;;;;;;;;;4993813;28;20030;-65
2021/03/20 04:34:56;;;;;;;11.45;6.90;;;;;;;;;;4992801;28;20559;-65
2021/03/20 04:37:23;;;;;;;14.82;7.85;;;;;;;;;;4993615;28;20138;-65
2021/03/20 04:39:50;;;;;;;15.30;8.88;;;;;;;;;;4993784;28;20113;-65
2021/03/20 04:42:18;;;;;;;14.43;7.75;;;;;;;;;;4993439;28;20050;-65
2021/03/20 04:44:43;;;;;;;14.10;7.97;;;;;;;;;;4993514;28;20046;-65
2021/03/20 04:47:13;;;;;;;15.85;8.10;;;;;;;;;;4993661;28;20034;-65
2021/03/20 04:49:41;;;;;;;16.27;8.98;;;;;;;;;;4993658;28;20586;-65
2021/03/20 04:52:10;;;;;;;18.08;9.60;;;;;;;;;;4993573;28;20018;-65
2021/03/20 04:54:35;;;;;;;17.15;8.50;;;;;;;;;;4993625;28;20026;-65
2021/03/20 04:57:11;;;;;;;15.45;9.80;;;;;;;;;;4993462;28;20042;-65
2021/03/20 04:59:54;;;;;;;18.67;10.32;;;;;;;;;;4996453;28;20134;-65
2021/03/20 05:02:23;;;;;;;17.25;10.02;;;;;;;;;;4999952;28;20116;-65
2021/03/20 05:04:50;;;;;;;20.60;10.13;;;;;;;;;;5000060;28;20034;-65
2021/03/20 05:07:16;;;;;;;14.38;8.63;;;;;;;;;;4993920;28;20164;-65
2021/03/20 05:09:42;;;;;;;16.42;9.40;;;;;;;;;;4999202;28;20029;-65
2021/03/20 05:12:18;;;;;;;18.77;9.68;;;;;;;;;;4998997;28;20023;-65
2021/03/20 05:14:46;;;;;;;17.55;9.75;;;;;;;;;;5000388;28;20092;-65
2021/03/20 05:17:15;;;;;;;16.23;8.43;;;;;;;;;;4999868;28;20049;-65
2021/03/20 05:19:40;;;;;;;14.13;7.80;;;;;;;;;;4999968;28;20030;-65
2021/03/20 05:22:06;;;;;;;16.27;7.85;;;;;;;;;;4999764;28;20022;-65
2021/03/20 05:24:35;;;;;;;12.60;7.63;;;;;;;;;;5000229;28;20077;-64
2021/03/20 05:27:02;;;;;;;15.00;8.50;;;;;;;;;;5000063;28;20081;-65
2021/03/20 05:29:27;;;;;;;17.48;8.65;;;;;;;;;;4999648;28;20474;-65
2021/03/20 05:31:53;;;;;;;13.13;8.48;;;;;;;;;;4999799;28;20034;-65
2021/03/20 05:34:24;;;;;;;14.27;8.35;;;;;;;;;;4995421;28;20114;-65
2021/03/20 05:36:50;;;;;;;18.45;8.90;;;;;;;;;;4980104;28;20046;-65
2021/03/20 05:39:15;;;;;;;17.60;8.98;;;;;;;;;;4980423;28;20035;-65
2021/03/20 05:41:59;;;;;;;17.75;10.48;;;;;;;;;;4980163;28;20113;-65
2021/03/20 05:44:39;;;;;;;15.48;9.32;;;;;;;;;;4980246;28;20050;-65
2021/03/20 05:47:08;;;;;;;16.80;8.77;;;;;;;;;;4980131;28;20034;-65
2021/03/20 05:49:43;;;;;;;16.45;9.70;;;;;;;;;;4980185;28;20038;-65
2021/03/20 05:52:26;;;;;;;16.83;9.10;;;;;;;;;;4980087;28;20039;-65
2021/03/20 05:55:10;;;;;;;21.33;10.13;;;;;;;;;;4980145;28;20041;-65
2021/03/20 05:57:38;;;;;;;19.02;10.23;;;;;;;;;;4980029;28;20035;-65
2021/03/20 06:00:17;;;;;;;17.50;10.18;;;;;;;;;;4980167;28;20031;-65
2021/03/20 06:03:02;;;;;;;16.60;10.20;;;;;;;;;;4980066;28;20043;-65
2021/03/20 06:05:34;;;;;;;20.30;10.60;;;;;;;;;;4979543;28;20047;-65
2021/03/20 06:08:02;;;;;;;21.08;10.88;;;;;;;;;;4980005;28;20494;-65
2021/03/20 06:10:36;;;;;;;13.82;8.23;;;;;;;;;;4978785;28;20479;-66
2021/03/20 06:13:07;;;;;;;18.70;8.93;;;;;;;;;;4992580;28;20074;-65
2021/03/20 06:15:50;;;;;;;13.48;8.50;;;;;;;;;;4996331;28;20045;-65
2021/03/20 06:18:31;;;;;;;18.88;8.07;;;;;;;;;;4996282;28;20022;-65
2021/03/20 06:21:02;;;;;;;12.93;7.40;;;;;;;;;;4996310;28;20053;-65
2021/03/20 06:23:39;;;;;;;18.95;8.07;;;;;;;;;;4996173;28;20035;-65
2021/03/20 06:26:13;;;;;;;17.42;8.55;;;;;;;;;;4996157;28;20536;-65
2021/03/20 06:28:59;;;;;;;15.93;7.13;;;;;;;;;;4996079;28;20038;-65
2021/03/20 06:31:24;;;;;;;15.48;8.32;;;;;;;;;;4994497;28;20035;-65
2021/03/20 06:33:52;;;;;;;14.73;8.20;;;;;;;;;;4995930;28;20034;-65
2021/03/20 06:36:23;;;;;;;13.23;7.93;;;;;;;;;;4996029;28;20112;-65
2021/03/20 06:38:54;;;;;;;14.38;7.88;;;;;;;;;;4995890;28;20030;-65
2021/03/20 06:41:24;;;;;;;16.70;8.32;;;;;;;;;;4995959;28;20038;-65
2021/03/20 06:43:52;;;;;;;12.60;7.57;;;;;;;;;;4995411;28;20483;-65
2021/03/20 06:46:19;;;;;;;19.60;8.57;;;;;;;;;;4994571;28;20045;-65
2021/03/20 06:48:45;;;;;;;16.33;8.68;;;;;;;;;;4995726;28;20029;-65
2021/03/20 06:51:10;;;;;;;16.38;8.65;;;;;;;;;;4996043;28;20042;-65
2021/03/20 06:53:48;;;;;;;14.85;8.27;;;;;;;;;;4995572;28;20546;-65
2021/03/20 06:56:14;;;;;;;16.50;8.15;;;;;;;;;;4995299;28;20534;-66
2021/03/20 06:58:40;;;;;;;14.07;8.40;;;;;;;;;;4995792;28;20030;-65
2021/03/20 07:01:14;;;;;;;16.73;9.13;;;;;;;;;;4995538;28;20435;-65
2021/03/20 07:03:42;;;;;;;19.25;9.32;;;;;;;;;;4995484;28;20026;-65
2021/03/20 07:06:19;;;;;;;13.02;8.52;;;;;;;;;;4995429;28;20039;-65
2021/03/20 07:09:05;;;;;;;14.20;8.93;;;;;;;;;;4988877;28;20118;-65
2021/03/20 07:11:32;;;;;;;15.05;9.05;;;;;;;;;;4984358;28;20050;-65
2021/03/20 07:14:00;;;;;;;17.33;9.77;;;;;;;;;;4995212;28;20038;-65
2021/03/20 07:16:28;;;;;;;18.40;9.90;;;;;;;;;;4995104;28;20050;-65
2021/03/20 07:19:02;;;;;;;21.55;10.27;;;;;;;;;;4995091;28;20053;-64
2021/03/20 07:21:30;;;;;;;16.77;10.27;;;;;;;;;;4995243;28;20040;-65
2021/03/20 07:24:08;;;;;;;18.60;9.32;;;;;;;;;;4994887;28;20073;-66
2021/03/20 07:26:47;;;;;;;15.43;8.75;;;;;;;;;;4995185;28;20128;-65
2021/03/20 07:29:13;;;;;;;17.20;9.75;;;;;;;;;;4995110;28;20038;-65
2021/03/20 07:31:51;;;;;;;14.85;9.10;;;;;;;;;;4994523;28;20041;-66
2021/03/20 07:34:21;;;;;;;18.20;9.23;;;;;;;;;;4994826;28;20538;-65
2021/03/20 07:36:46;;;;;;;12.02;8.02;;;;;;;;;;4994681;28;20057;-65
2021/03/20 07:39:20;;;;;;;15.30;8.32;;;;;;;;;;4991973;28;20035;-65
2021/03/20 07:41:53;;;;;;;17.98;8.40;;;;;;;;;;4983883;28;20081;-65
2021/03/20 07:44:18;;;;;;;16.95;8.65;;;;;;;;;;4975352;28;20055;-65
2021/03/20 07:46:44;;;;;;;16.17;8.45;;;;;;;;;;4986413;28;20096;-65
2021/03/20 07:49:25;;;;;;;12.52;7.53;;;;;;;;;;4975293;28;20035;-65
2021/03/20 07:51:54;;;;;;;15.82;9.57;;;;;;;;;;4974775;28;20139;-65
2021/03/20 07:54:21;;;;;;;12.88;7.32;;;;;;;;;;4975203;28;20097;-65
2021/03/20 07:56:47;;;;;;;18.95;8.48;;;;;;;;;;4974978;28;20093;-65
2021/03/20 07:59:24;;;;;;;18.38;9.27;;;;;;;;;;4982558;28;20117;-65
2021/03/20 08:01:57;;;;;;;23.38;11.02;;;;;;;;;;4985373;28;20030;-65
2021/03/20 08:04:41;;;;;;;25.27;10.50;;;;;;;;;;4975070;28;20034;-65
2021/03/20 08:07:06;;;;;;;23.52;11.15;;;;;;;;;;4973517;28;20424;-65
2021/03/20 08:09:31;;;;;;;19.02;10.57;;;;;;;;;;4981785;28;20030;-65
2021/03/20 08:11:57;;;;;;;22.98;11.95;;;;;;;;;;4991931;28;20042;-65
2021/03/20 08:14:28;;;;;;;22.38;12.05;;;;;;;;;;4993357;28;20023;-65
2021/03/20 08:16:54;;;;;;;23.88;11.93;;;;;;;;;;4993930;28;20066;-65
2021/03/20 08:19:19;;;;;;;23.52;14.13;;;;;;;;;;4986910;28;20034;-65
2021/03/20 08:21:48;;;;;;;29.13;14.82;;;;;;;;;;4977251;28;20054;-65
2021/03/20 08:24:22;;;;;;;27.45;14.27;;;;;;;;;;4973904;28;20037;-65
2021/03/20 08:26:50;;;;;;;28.45;15.32;;;;;;;;;;4974376;28;20038;-65
2021/03/20 08:29:21;;;;;;;28.63;14.18;;;;;;;;;;4974680;28;20046;-65
2021/03/20 08:31:59;;;;;;;24.98;15.05;;;;;;;;;;4974206;28;20049;-65
2021/03/20 08:34:30;;;;;;;29.27;14.48;;;;;;;;;;4974076;28;20031;-65
2021/03/20 08:37:14;;;;;;;27.60;15.90;;;;;;;;;;4974257;28;20121;-65
2021/03/20 08:39:49;;;;;;;28.30;15.43;;;;;;;;;;4974365;28;20038;-65
2021/03/20 08:42:17;;;;;;;28.05;16.20;;;;;;;;;;4985784;28;20089;-65
2021/03/20 08:44:54;;;;;;;28.17;14.50;;;;;;;;;;4995501;28;20080;-65
2021/03/20 08:47:38;;;;;;;27.20;13.98;;;;;;;;;;4991612;28;20045;-65
2021/03/20 08:50:09;;;;;;;25.80;15.10;;;;;;;;;;4992059;28;20030;-65
2021/03/20 08:52:53;;;;;;;23.98;15.05;;;;;;;;;;4993037;28;20483;-65
2021/03/20 08:55:24;;;;;;;25.85;15.07;;;;;;;;;;4991245;28;20030;-66
2021/03/20 08:58:01;;;;;;;22.73;13.95;;;;;;;;;;4993779;28;20030;-65
2021/03/20 09:00:31;;;;;;;27.15;13.48;;;;;;;;;;5009356;28;20503;-65
2021/03/20 09:03:00;;;;;;;25.55;15.30;;;;;;;;;;4999971;28;20029;-65
2021/03/20 09:05:36;;;;;;;25.48;14.57;;;;;;;;;;5002490;28;20133;-65
2021/03/20 09:08:23;;;;;;;26.73;14.85;;;;;;;;;;5008726;28;20042;-65
2021/03/20 09:11:11;;;;;;;23.95;14.30;;;;;;;;;;4985094;28;20026;-65
2021/03/20 09:13:42;;;;;;;22.40;13.70;;;;;;;;;;4997869;28;20052;-65
2021/03/20 09:16:13;;;;;;;22.13;13.30;;;;;;;;;;4996593;28;20047;-66
2021/03/20 09:18:40;;;;;;;23.92;13.18;;;;;;;;;;5007752;28;20102;-66
2021/03/20 09:21:06;;;;;;;22.98;13.93;;;;;;;;;;5000211;28;20483;-65
2021/03/20 09:23:34;;;;;;;23.42;14.05;;;;;;;;;;4995719;28;20030;-66
2021/03/20 09:26:00;;;;;;;18.20;11.85;;;;;;;;;;5005501;28;20077;-65
2021/03/20 09:28:29;;;;;;;23.60;13.52;;;;;;;;;;4994220;28;20034;-66
2021/03/20 09:31:20;;;;;;;24.00;14.00;;;;;;;;;;5004017;28;20014;-65
2021/03/20 09:33:46;;;;;;;25.25;14.23;;;;;;;;;;4990180;28;20106;-66
2021/03/20 09:36:20;;;;;;;25.05;14.38;;;;;;;;;;5006042;28;20558;-66
2021/03/20 09:38:48;;;;;;;24.38;13.98;;;;;;;;;;4995140;28;20728;-65
2021/03/20 09:41:13;;;;;;;22.88;13.93;;;;;;;;;;5000872;28;20045;-66
2021/03/20 09:43:45;;;;;;;24.27;14.88;;;;;;;;;;4990387;28;20101;-65
2021/03/20 09:46:29;;;;;;;24.17;14.52;;;;;;;;;;5007187;28;20030;-65
2021/03/20 09:48:54;;;;;;;26.88;14.68;;;;;;;;;;4999928;28;20080;-66
2021/03/20 09:51:38;;;;;;;25.40;15.05;;;;;;;;;;5004077;28;20431;-65
2021/03/20 09:54:22;;;;;;;23.20;13.55;;;;;;;;;;5009176;28;20386;-66
2021/03/20 09:56:57;;;;;;;24.35;14.23;;;;;;;;;;4984779;28;20045;-66
2021/03/20 09:59:42;;;;;;;22.55;14.82;;;;;;;;;;4995396;28;20065;-65
2021/03/20 10:02:11;;;;;;;23.50;13.45;;;;;;;;;;4992992;28;20885;-66
2021/03/20 10:04:36;;;;;;;25.38;14.93;;;;;;;;;;4994423;28;20586;-65
2021/03/20 10:07:20;;;;;;;24.13;14.75;;;;;;;;;;4987869;28;20126;-65
2021/03/20 10:10:00;;;;;;;22.58;13.60;;;;;;;;;;4983907;28;20026;-65
2021/03/20 10:12:43;;;;;;;28.63;14.98;;;;;;;;;;4978596;28;20496;-66
2021/03/20 10:15:12;;;;;;;24.08;14.70;;;;;;;;;;4977138;28;20031;-66
2021/03/20 10:17:56;;;;;;;20.60;13.13;;;;;;;;;;4984761;28;20035;-65
2021/03/20 10:20:23;;;;;;;23.15;13.40;;;;;;;;;;4969243;28;20058;-65
2021/03/20 10:22:51;;;;;;;21.55;12.27;;;;;;;;;;4969125;28;20362;-66
2021/03/20 10:25:17;;;;;;;24.25;15.07;;;;;;;;;;4969991;28;20026;-65
2021/03/20 10:27:47;;;;;;;28.02;14.55;;;;;;;;;;4982352;28;20036;-67
2021/03/20 10:30:21;;;;;;;27.67;15.00;;;;;;;;;;4987837;28;20525;-66
2021/03/20 10:32:55;;;;;;;25.25;14.40;;;;;;;;;;4983259;28;20680;-66
2021/03/20 10:35:21;;;;;;;23.88;14.23;;;;;;;;;;4985884;28;20041;-66
2021/03/20 10:37:46;;;;;;;23.08;13.90;;;;;;;;;;4988241;28;20035;-66
2021/03/20 10:40:13;;;;;;;21.13;13.18;;;;;;;;;;4988853;28;20099;-66
2021/03/20 10:42:40;;;;;;;23.48;14.40;;;;;;;;;;4987526;28;20026;-66
2021/03/20 10:45:16;;;;;;;22.65;13.20;;;;;;;;;;4988951;28;20050;-66
2021/03/20 10:47:43;;;;;;;21.80;12.60;;;;;;;;;;4988241;28;20046;-66
2021/03/20 10:50:15;;;;;;;25.02;12.35;;;;;;;;;;4972120;28;20043;-66
2021/03/20 10:52:41;;;;;;;21.08;12.20;;;;;;;;;;4983978;28;20022;-66
2021/03/20 10:55:29;;;;;;;17.48;11.40;;;;;;;;;;4997838;28;20034;-66
2021/03/20 10:57:55;;;;;;;19.67;12.43;;;;;;;;;;4994433;28;20046;-66
2021/03/20 11:00:38;;;;;;;16.13;10.93;;;;;;;;;;4991438;28;20045;-66
2021/03/20 11:03:26;;;;;;;17.85;10.38;;;;;;;;;;4996784;28;20049;-66
2021/03/20 11:05:52;;;;;;;19.25;11.55;;;;;;;;;;4993241;28;20034;-66
2021/03/20 11:08:27;;;;;;;20.35;11.70;;;;;;;;;;4990484;28;20037;-66
2021/03/20 11:11:06;;;;;;;17.73;11.75;;;;;;;;;;4986727;28;20030;-66
2021/03/20 11:13:45;;;;;;;17.30;10.82;;;;;;;;;;4981720;28;20091;-66
2021/03/20 11:16:15;;;;;;;20.42;13.25;;;;;;;;;;4987271;28;20046;-65
2021/03/20 11:18:45;;;;;;;21.23;13.07;;;;;;;;;;4984446;28;20054;-66
2021/03/20 11:21:33;;;;;;;15.57;10.07;;;;;;;;;;4995249;28;20044;-66
2021/03/20 11:24:16;;;;;;;16.83;10.10;;;;;;;;;;4993561;28;20038;-67
2021/03/20 11:26:43;;;;;;;19.65;10.63;;;;;;;;;;4985608;28;20475;-65
2021/03/20 11:29:16;;;;;;;14.20;9.98;;;;;;;;;;4998533;28;20026;-66
2021/03/20 11:31:47;;;;;;;21.60;10.80;;;;;;;;;;4996754;28;20146;-66
2021/03/20 11:34:16;;;;;;;17.25;10.10;;;;;;;;;;4988512;28;20058;-66
2021/03/20 11:36:42;;;;;;;16.35;10.43;;;;;;;;;;4988489;28;20045;-66
2021/03/20 11:39:09;;;;;;;15.48;9.48;;;;;;;;;;4991270;28;20026;-66
2021/03/20 11:41:38;;;;;;;13.52;9.80;;;;;;;;;;4996649;28;20466;-66
2021/03/20 11:44:12;;;;;;;13.73;9.15;;;;;;;;;;4987104;28;20062;-66
2021/03/20 11:46:46;;;;;;;17.20;10.43;;;;;;;;;;4998260;28;20380;-66
2021/03/20 11:49:43;;;;;;;18.92;10.55;;;;;;;;;;4988275;28;20643;-65
2021/03/20 11:52:27;;;;;;;19.83;12.45;;;;;;;;;;4974184;28;20105;-66
2021/03/20 11:54:56;;;;;;;23.25;12.75;;;;;;;;;;4979371;28;20045;-66
2021/03/20 11:57:21;;;;;;;17.30;11.02;;;;;;;;;;4998733;28;20049;-66
2021/03/20 11:59:47;;;;;;;26.73;11.55;;;;;;;;;;4990540;28;20034;-66
2021/03/20 12:02:25;;;;;;;19.23;10.65;;;;;;;;;;4991102;28;20905;-66
2021/03/20 12:05:09;;;;;;;18.88;11.50;;;;;;;;;;5000467;28;20017;-66
2021/03/20 12:07:34;;;;;;;16.83;10.52;;;;;;;;;;4990151;28;20067;-66
2021/03/20 12:10:11;;;;;;;13.68;8.73;;;;;;;;;;4992962;28;20130;-66
2021/03/20 12:12:53;;;;;;;14.77;9.30;;;;;;;;;;4984983;28;20342;-66
2021/03/20 12:15:29;;;;;;;16.60;8.77;;;;;;;;;;4961989;28;20027;-66
2021/03/20 12:17:56;;;;;;;11.63;7.68;;;;;;;;;;4964242;28;20042;-65
2021/03/20 12:20:42;;;;;;;14.18;7.47;;;;;;;;;;4964551;28;20027;-66
2021/03/20 12:23:11;;;;;;;9.27;6.45;;;;;;;;;;4992460;28;20041;-66
2021/03/20 12:25:46;;;;;;;11.23;6.10;;;;;;;;;;4996143;28;20037;-66
2021/03/20 12:28:14;;;;;;;10.93;6.72;;;;;;;;;;4994323;28;20046;-66
2021/03/20 12:30:40;;;;;;;10.35;7.25;;;;;;;;;;4987142;28;20430;-65
2021/03/20 12:33:11;;;;;;;10.65;6.20;;;;;;;;;;5000667;28;20030;-65
2021/03/20 12:35:44;;;;;;;12.27;6.78;;;;;;;;;;4990483;28;20451;-65
2021/03/20 12:38:18;;;;;;;15.85;7.05;;;;;;;;;;4993544;28;20375;-66
2021/03/20 12:40:47;;;;;;;9.88;6.43;;;;;;;;;;5000988;28;20497;-66
2021/03/20 12:43:27;;;;;;;10.60;6.40;;;;;;;;;;4969344;28;20456;-66
2021/03/20 12:45:53;;;;;;;9.57;5.90;;;;;;;;;;4989178;28;20053;-66
2021/03/20 12:48:19;;;;;;;11.30;6.80;;;;;;;;;;4989189;28;20033;-66
2021/03/20 12:50:45;;;;;;;9.63;6.03;;;;;;;;;;4988279;28;20034;-66
2021/03/20 12:53:10;;;;;;;10.57;6.63;;;;;;;;;;4988916;28;20034;-66
2021/03/20 12:55:36;;;;;;;9.38;4.85;;;;;;;;;;4988910;28;20026;-66
2021/03/20 12:58:02;;;;;;;9.38;5.50;;;;;;;;;;4988610;28;20030;-66
2021/03/20 13:00:28;;;;;;;10.98;5.53;;;;;;;;;;4988416;28;20030;-66
2021/03/20 13:02:53;;;;;;;9.85;5.13;;;;;;;;;;4988972;28;20032;-66
2021/03/20 13:05:25;;;;;;;7.63;5.03;;;;;;;;;;4988689;28;20434;-66
2021/03/20 13:07:50;;;;;;;7.78;4.75;;;;;;;;;;4988897;28;20026;-66
2021/03/20 13:10:16;;;;;;;9.32;4.20;;;;;;;;;;4988865;28;20027;-66
2021/03/20 13:12:41;;;;;;;8.52;4.53;;;;;;;;;;4988713;28;20022;-66
2021/03/20 13:15:07;;;;;;;6.68;4.40;;;;;;;;;;4985966;28;20395;-66
2021/03/20 13:17:33;;;;;;;7.90;4.30;;;;;;;;;;4988439;28;20122;-66
2021/03/20 13:19:59;;;;;;;7.38;4.10;;;;;;;;;;4988320;28;20141;-66
2021/03/20 13:22:24;;;;;;;6.63;4.50;;;;;;;;;;4991703;28;20022;-66
2021/03/20 13:24:49;;;;;;;8.20;3.72;;;;;;;;;;4992266;28;20029;-65
2021/03/20 13:27:15;;;;;;;7.00;4.03;;;;;;;;;;4986295;28;20069;-66
2021/03/20 13:29:40;;;;;;;5.18;3.40;;;;;;;;;;4990720;28;20460;-66
2021/03/20 13:32:06;;;;;;;6.03;3.97;;;;;;;;;;4991170;28;20777;-67
2021/03/20 13:34:31;;;;;;;8.60;3.92;;;;;;;;;;4991459;28;20491;-66
2021/03/20 13:36:56;;;;;;;5.72;3.83;;;;;;;;;;4992379;28;20042;-66
2021/03/20 13:39:22;;;;;;;6.75;3.67;;;;;;;;;;4992291;28;20050;-66
2021/03/20 13:41:47;;;;;;;8.60;4.15;;;;;;;;;;4985926;28;20034;-65
2021/03/20 13:44:14;;;;;;;7.97;4.20;;;;;;;;;;4981694;28;20049;-66
2021/03/20 13:46:40;;;;;;;6.40;4.10;;;;;;;;;;4992224;28;20077;-66
2021/03/20 13:49:05;;;;;;;8.07;4.18;;;;;;;;;;4991917;28;20094;-66
2021/03/20 13:51:31;;;;;;;5.65;3.55;;;;;;;;;;4991879;28;20038;-66
2021/03/20 13:53:56;;;;;;;8.75;3.70;;;;;;;;;;4989574;28;20027;-66
2021/03/20 13:56:22;;;;;;;7.65;3.95;;;;;;;;;;4981485;28;20411;-66
2021/03/20 13:58:47;;;;;;;7.53;4.25;;;;;;;;;;4970920;28;20038;-66
2021/03/20 14:01:12;;;;;;;5.88;3.70;;;;;;;;;;4972227;28;20039;-66
2021/03/20 14:03:38;;;;;;;6.07;3.45;;;;;;;;;;4971762;28;20061;-64
2021/03/20 14:06:06;;;;;;;11.20;5.93;;;;;;;;;;4988916;28;20419;-66
2021/03/20 14:08:32;;;;;;;7.40;4.10;;;;;;;;;;4989511;28;20022;-66
2021/03/20 14:11:00;;;;;;;7.03;3.78;;;;;;;;;;4988176;28;20129;-66
2021/03/20 14:13:25;;;;;;;6.03;3.50;;;;;;;;;;4989933;28;20038;-66
2021/03/20 14:15:51;;;;;;;5.75;3.22;;;;;;;;;;4990132;28;20069;-66
2021/03/20 14:18:18;;;;;;;7.85;4.65;;;;;;;;;;4990293;28;20061;-66
2021/03/20 14:20:46;;;;;;;7.40;4.22;;;;;;;;;;4991548;28;20076;-66
2021/03/20 14:23:12;;;;;;;9.30;4.93;;;;;;;;;;4991583;28;20105;-66
2021/03/20 14:25:37;;;;;;;12.40;4.82;;;;;;;;;;4991272;28;20046;-67
2021/03/20 14:28:04;;;;;;;9.32;4.30;;;;;;;;;;4991064;28;20386;-67
2021/03/20 14:30:31;;;;;;;8.30;4.57;;;;;;;;;;4989568;28;20026;-66
2021/03/20 14:32:57;;;;;;;6.00;4.15;;;;;;;;;;4990337;28;20070;-66
2021/03/20 14:35:22;;;;;;;5.97;3.95;;;;;;;;;;4991265;28;20073;-66
2021/03/20 14:37:47;;;;;;;10.10;4.97;;;;;;;;;;4979611;28;20030;-66
2021/03/20 14:40:16;;;;;;;7.32;3.60;;;;;;;;;;4971853;28;20516;-66
2021/03/20 14:42:42;;;;;;;5.05;3.13;;;;;;;;;;4971511;28;20031;-66
2021/03/20 14:45:07;;;;;;;5.70;3.40;;;;;;;;;;4972166;28;20065;-66
2021/03/20 14:47:33;;;;;;;5.13;2.53;;;;;;;;;;4990242;28;20034;-66